sensor_id;sensor_type;location;lat;lon;timestamp;temperature;humidity
41720;DHT22;27405;53.316;-6.294;2022-09-12T00:01:15;18.20;99.90
41720;DHT22;27405;53.316;-6.294;2022-09-12T00:03:41;18.20;99.90
41720;DHT22;27405;53.316;-6.294;2022-09-12T00:06:16;18.20;99.90
41720;DHT22;27405;53.316;-6.294;2022-09-12T00:08:42;18.10;99.90
41720;DHT22;27405;53.316;-6.294;2022-09-12T00:11:09;18.10;99.90
41720;DHT22;27405;53.316;-6.294;2022-09-12T00:13:37;18.10;99.90
41720;DHT22;27405;53.316;-6.294;2022-09-12T00:16:03;18.10;99.90
41720;DHT22;27405;53.316;-6.294;2022-09-12T00:18:29;18.20;99.90
41720;DHT22;27405;53.316;-6.294;2022-09-12T00:20:54;18.20;99.90
41720;DHT22;27405;53.316;-6.294;2022-09-12T00:23:20;18.10;99.90
41720;DHT22;27405;53.316;-6.294;2022-09-12T00:25:47;18.10;99.90
41720;DHT22;27405;53.316;-6.294;2022-09-12T00:28:15;18.10;99.90
41720;DHT22;27405;53.316;-6.294;2022-09-12T00:30:45;18.10;99.90
41720;DHT22;27405;53.316;-6.294;2022-09-12T00:33:12;18.10;99.90
41720;DHT22;27405;53.316;-6.294;2022-09-12T00:35:42;18.10;99.90
41720;DHT22;27405;53.316;-6.294;2022-09-12T00:38:09;18.20;99.90
41720;DHT22;27405;53.316;-6.294;2022-09-12T00:40:34;18.10;99.90
41720;DHT22;27405;53.316;-6.294;2022-09-12T00:43:00;18.20;99.90
41720;DHT22;27405;53.316;-6.294;2022-09-12T00:45:29;18.10;99.90
41720;DHT22;27405;53.316;-6.294;2022-09-12T00:47:58;18.20;99.90
41720;DHT22;27405;53.316;-6.294;2022-09-12T00:50:26;18.20;99.90
41720;DHT22;27405;53.316;-6.294;2022-09-12T00:52:58;18.20;99.90
41720;DHT22;27405;53.316;-6.294;2022-09-12T00:55:40;18.20;99.90
41720;DHT22;27405;53.316;-6.294;2022-09-12T00:58:19;18.10;99.90
41720;DHT22;27405;53.316;-6.294;2022-09-12T01:00:46;18.10;99.90
41720;DHT22;27405;53.316;-6.294;2022-09-12T01:03:15;18.10;99.90
41720;DHT22;27405;53.316;-6.294;2022-09-12T01:05:45;18.10;99.90
41720;DHT22;27405;53.316;-6.294;2022-09-12T01:08:12;18.10;99.90
41720;DHT22;27405;53.316;-6.294;2022-09-12T01:10:39;18.00;99.90
41720;DHT22;27405;53.316;-6.294;2022-09-12T01:13:08;18.00;99.90
41720;DHT22;27405;53.316;-6.294;2022-09-12T01:15:36;18.00;99.90
41720;DHT22;27405;53.316;-6.294;2022-09-12T01:26:02;17.90;99.90
41720;DHT22;27405;53.316;-6.294;2022-09-12T01:29:28;17.80;99.90
41720;DHT22;27405;53.316;-6.294;2022-09-12T01:31:34;17.80;99.90
41720;DHT22;27405;53.316;-6.294;2022-09-12T01:34:23;17.70;99.90
41720;DHT22;27405;53.316;-6.294;2022-09-12T01:39:28;17.80;99.90
41720;DHT22;27405;53.316;-6.294;2022-09-12T01:44:38;17.80;99.90
41720;DHT22;27405;53.316;-6.294;2022-09-12T01:47:30;17.80;99.90
41720;DHT22;27405;53.316;-6.294;2022-09-12T01:50:05;17.80;99.90
41720;DHT22;27405;53.316;-6.294;2022-09-12T01:58:28;17.80;99.90
41720;DHT22;27405;53.316;-6.294;2022-09-12T02:01:01;17.80;99.90
41720;DHT22;27405;53.316;-6.294;2022-09-12T02:03:37;17.80;99.90
41720;DHT22;27405;53.316;-6.294;2022-09-12T02:06:25;17.70;99.90
41720;DHT22;27405;53.316;-6.294;2022-09-12T02:09:06;17.70;99.90
41720;DHT22;27405;53.316;-6.294;2022-09-12T02:11:35;17.70;99.90
41720;DHT22;27405;53.316;-6.294;2022-09-12T02:14:06;17.70;99.90
41720;DHT22;27405;53.316;-6.294;2022-09-12T02:16:54;17.80;99.90
41720;DHT22;27405;53.316;-6.294;2022-09-12T02:19:23;17.80;99.90
41720;DHT22;27405;53.316;-6.294;2022-09-12T02:21:57;17.80;99.90
41720;DHT22;27405;53.316;-6.294;2022-09-12T02:24:37;17.90;99.90
41720;DHT22;27405;53.316;-6.294;2022-09-12T02:27:14;17.90;99.90
41720;DHT22;27405;53.316;-6.294;2022-09-12T02:29:40;17.80;99.90
41720;DHT22;27405;53.316;-6.294;2022-09-12T02:32:29;17.80;99.90
41720;DHT22;27405;53.316;-6.294;2022-09-12T02:35:21;17.80;99.90
41720;DHT22;27405;53.316;-6.294;2022-09-12T02:37:58;17.80;99.90
41720;DHT22;27405;53.316;-6.294;2022-09-12T02:40:27;17.80;99.90
41720;DHT22;27405;53.316;-6.294;2022-09-12T02:42:53;17.80;99.90
41720;DHT22;27405;53.316;-6.294;2022-09-12T02:45:19;17.80;99.90
41720;DHT22;27405;53.316;-6.294;2022-09-12T02:47:48;17.80;99.90
41720;DHT22;27405;53.316;-6.294;2022-09-12T02:50:15;17.80;99.90
41720;DHT22;27405;53.316;-6.294;2022-09-12T02:52:43;17.70;99.90
41720;DHT22;27405;53.316;-6.294;2022-09-12T02:55:09;17.70;99.90
41720;DHT22;27405;53.316;-6.294;2022-09-12T02:57:38;17.70;99.90
41720;DHT22;27405;53.316;-6.294;2022-09-12T03:00:05;17.60;99.90
41720;DHT22;27405;53.316;-6.294;2022-09-12T03:08:20;17.60;99.90
41720;DHT22;27405;53.316;-6.294;2022-09-12T03:16:32;17.50;99.90
41720;DHT22;27405;53.316;-6.294;2022-09-12T03:19:22;17.50;99.90
41720;DHT22;27405;53.316;-6.294;2022-09-12T03:21:57;17.50;99.90
41720;DHT22;27405;53.316;-6.294;2022-09-12T03:24:36;17.50;99.90
41720;DHT22;27405;53.316;-6.294;2022-09-12T03:27:21;17.50;99.90
41720;DHT22;27405;53.316;-6.294;2022-09-12T03:29:51;17.40;99.90
41720;DHT22;27405;53.316;-6.294;2022-09-12T03:32:17;17.40;99.90
41720;DHT22;27405;53.316;-6.294;2022-09-12T03:34:43;17.40;99.90
41720;DHT22;27405;53.316;-6.294;2022-09-12T03:37:09;17.40;99.90
41720;DHT22;27405;53.316;-6.294;2022-09-12T03:39:35;17.40;99.90
41720;DHT22;27405;53.316;-6.294;2022-09-12T03:42:00;17.40;99.90
41720;DHT22;27405;53.316;-6.294;2022-09-12T03:44:26;17.40;99.90
41720;DHT22;27405;53.316;-6.294;2022-09-12T03:46:52;17.40;99.90
41720;DHT22;27405;53.316;-6.294;2022-09-12T03:49:17;17.40;99.90
41720;DHT22;27405;53.316;-6.294;2022-09-12T03:51:43;17.40;99.90
41720;DHT22;27405;53.316;-6.294;2022-09-12T03:54:09;17.40;99.90
41720;DHT22;27405;53.316;-6.294;2022-09-12T03:56:35;17.50;99.90
41720;DHT22;27405;53.316;-6.294;2022-09-12T03:59:04;17.40;99.90
41720;DHT22;27405;53.316;-6.294;2022-09-12T04:01:31;17.50;99.90
41720;DHT22;27405;53.316;-6.294;2022-09-12T04:03:57;17.50;99.90
41720;DHT22;27405;53.316;-6.294;2022-09-12T04:06:22;17.60;99.90
41720;DHT22;27405;53.316;-6.294;2022-09-12T04:08:50;17.60;99.90
41720;DHT22;27405;53.316;-6.294;2022-09-12T04:11:17;17.60;99.90
41720;DHT22;27405;53.316;-6.294;2022-09-12T04:13:44;17.60;99.90
41720;DHT22;27405;53.316;-6.294;2022-09-12T04:16:10;17.60;99.90
41720;DHT22;27405;53.316;-6.294;2022-09-12T04:18:37;17.60;99.90
41720;DHT22;27405;53.316;-6.294;2022-09-12T04:21:10;17.60;99.90
41720;DHT22;27405;53.316;-6.294;2022-09-12T04:23:36;17.60;99.90
41720;DHT22;27405;53.316;-6.294;2022-09-12T04:26:05;17.70;99.90
41720;DHT22;27405;53.316;-6.294;2022-09-12T04:28:32;17.70;99.90
41720;DHT22;27405;53.316;-6.294;2022-09-12T04:31:10;17.70;99.90
41720;DHT22;27405;53.316;-6.294;2022-09-12T04:33:37;17.70;99.90
41720;DHT22;27405;53.316;-6.294;2022-09-12T04:36:15;17.70;99.90
41720;DHT22;27405;53.316;-6.294;2022-09-12T04:38:43;17.80;99.90
41720;DHT22;27405;53.316;-6.294;2022-09-12T04:41:52;17.80;99.90
41720;DHT22;27405;53.316;-6.294;2022-09-12T04:44:12;17.80;99.90
41720;DHT22;27405;53.316;-6.294;2022-09-12T04:46:44;17.80;99.90
41720;DHT22;27405;53.316;-6.294;2022-09-12T04:49:12;17.80;99.90
41720;DHT22;27405;53.316;-6.294;2022-09-12T04:51:39;17.80;99.90
41720;DHT22;27405;53.316;-6.294;2022-09-12T04:54:10;17.80;99.90
41720;DHT22;27405;53.316;-6.294;2022-09-12T04:56:39;17.80;99.90
41720;DHT22;27405;53.316;-6.294;2022-09-12T04:59:05;17.70;99.90
41720;DHT22;27405;53.316;-6.294;2022-09-12T05:01:33;17.60;99.90
41720;DHT22;27405;53.316;-6.294;2022-09-12T05:03:59;17.40;99.90
41720;DHT22;27405;53.316;-6.294;2022-09-12T05:06:27;17.30;99.90
41720;DHT22;27405;53.316;-6.294;2022-09-12T05:08:53;17.20;99.90
41720;DHT22;27405;53.316;-6.294;2022-09-12T05:11:22;17.20;99.90
41720;DHT22;27405;53.316;-6.294;2022-09-12T05:13:48;17.10;99.90
41720;DHT22;27405;53.316;-6.294;2022-09-12T05:16:16;17.00;99.90
41720;DHT22;27405;53.316;-6.294;2022-09-12T05:18:43;17.00;99.90
41720;DHT22;27405;53.316;-6.294;2022-09-12T05:21:11;17.00;99.90
41720;DHT22;27405;53.316;-6.294;2022-09-12T05:23:37;17.00;99.90
41720;DHT22;27405;53.316;-6.294;2022-09-12T05:26:05;16.90;99.90
41720;DHT22;27405;53.316;-6.294;2022-09-12T05:28:35;16.90;99.90
41720;DHT22;27405;53.316;-6.294;2022-09-12T05:31:13;16.90;99.90
41720;DHT22;27405;53.316;-6.294;2022-09-12T05:33:41;16.90;99.90
41720;DHT22;27405;53.316;-6.294;2022-09-12T05:36:11;16.90;99.90
41720;DHT22;27405;53.316;-6.294;2022-09-12T05:38:37;16.90;99.90
41720;DHT22;27405;53.316;-6.294;2022-09-12T05:41:04;16.90;99.90
41720;DHT22;27405;53.316;-6.294;2022-09-12T05:43:34;16.90;99.90
41720;DHT22;27405;53.316;-6.294;2022-09-12T05:46:04;16.90;99.90
41720;DHT22;27405;53.316;-6.294;2022-09-12T05:48:32;16.90;99.90
41720;DHT22;27405;53.316;-6.294;2022-09-12T05:51:03;16.80;99.90
41720;DHT22;27405;53.316;-6.294;2022-09-12T05:53:31;16.80;99.90
41720;DHT22;27405;53.316;-6.294;2022-09-12T05:56:07;16.80;99.90
41720;DHT22;27405;53.316;-6.294;2022-09-12T05:58:35;16.80;99.90
41720;DHT22;27405;53.316;-6.294;2022-09-12T06:01:05;16.80;99.90
41720;DHT22;27405;53.316;-6.294;2022-09-12T06:03:39;16.80;99.90
41720;DHT22;27405;53.316;-6.294;2022-09-12T06:06:05;16.80;99.90
41720;DHT22;27405;53.316;-6.294;2022-09-12T06:08:34;16.80;99.90
41720;DHT22;27405;53.316;-6.294;2022-09-12T06:11:04;16.80;99.90
41720;DHT22;27405;53.316;-6.294;2022-09-12T06:13:35;16.80;99.90
41720;DHT22;27405;53.316;-6.294;2022-09-12T06:16:17;16.80;99.90
41720;DHT22;27405;53.316;-6.294;2022-09-12T06:18:50;16.90;99.90
41720;DHT22;27405;53.316;-6.294;2022-09-12T06:21:17;16.90;99.90
41720;DHT22;27405;53.316;-6.294;2022-09-12T06:23:43;16.90;99.90
41720;DHT22;27405;53.316;-6.294;2022-09-12T06:26:11;16.90;99.90
41720;DHT22;27405;53.316;-6.294;2022-09-12T06:28:39;16.90;99.90
41720;DHT22;27405;53.316;-6.294;2022-09-12T06:31:10;16.90;99.90
41720;DHT22;27405;53.316;-6.294;2022-09-12T06:33:38;16.90;99.90
41720;DHT22;27405;53.316;-6.294;2022-09-12T06:36:09;16.90;99.90
41720;DHT22;27405;53.316;-6.294;2022-09-12T06:38:35;17.00;99.90
41720;DHT22;27405;53.316;-6.294;2022-09-12T06:41:04;16.90;99.90
41720;DHT22;27405;53.316;-6.294;2022-09-12T06:43:31;17.00;99.90
41720;DHT22;27405;53.316;-6.294;2022-09-12T06:45:57;17.00;99.90
41720;DHT22;27405;53.316;-6.294;2022-09-12T06:48:22;17.10;99.90
41720;DHT22;27405;53.316;-6.294;2022-09-12T06:50:59;17.10;99.90
41720;DHT22;27405;53.316;-6.294;2022-09-12T06:53:26;17.10;99.90
41720;DHT22;27405;53.316;-6.294;2022-09-12T06:56:00;17.10;99.90
41720;DHT22;27405;53.316;-6.294;2022-09-12T06:58:27;17.10;99.90
41720;DHT22;27405;53.316;-6.294;2022-09-12T07:01:07;17.10;99.90
41720;DHT22;27405;53.316;-6.294;2022-09-12T07:03:34;17.10;99.90
41720;DHT22;27405;53.316;-6.294;2022-09-12T07:06:08;17.10;99.90
41720;DHT22;27405;53.316;-6.294;2022-09-12T07:08:35;17.10;99.90
41720;DHT22;27405;53.316;-6.294;2022-09-12T07:11:29;17.20;99.90
41720;DHT22;27405;53.316;-6.294;2022-09-12T07:13:57;17.20;99.90
41720;DHT22;27405;53.316;-6.294;2022-09-12T07:16:24;17.20;99.90
41720;DHT22;27405;53.316;-6.294;2022-09-12T07:18:51;17.20;99.90
41720;DHT22;27405;53.316;-6.294;2022-09-12T07:21:18;17.20;99.90
41720;DHT22;27405;53.316;-6.294;2022-09-12T07:23:45;17.20;99.90
41720;DHT22;27405;53.316;-6.294;2022-09-12T07:26:12;17.20;99.90
41720;DHT22;27405;53.316;-6.294;2022-09-12T07:28:39;17.20;99.90
41720;DHT22;27405;53.316;-6.294;2022-09-12T07:31:13;17.30;99.90
41720;DHT22;27405;53.316;-6.294;2022-09-12T07:33:40;17.30;99.90
41720;DHT22;27405;53.316;-6.294;2022-09-12T07:36:09;17.30;99.90
41720;DHT22;27405;53.316;-6.294;2022-09-12T07:38:39;17.40;99.90
41720;DHT22;27405;53.316;-6.294;2022-09-12T07:41:20;17.40;99.90
41720;DHT22;27405;53.316;-6.294;2022-09-12T07:43:46;17.40;99.90
41720;DHT22;27405;53.316;-6.294;2022-09-12T07:46:12;17.50;99.90
41720;DHT22;27405;53.316;-6.294;2022-09-12T07:48:39;17.50;99.90
41720;DHT22;27405;53.316;-6.294;2022-09-12T07:51:07;17.60;99.90
41720;DHT22;27405;53.316;-6.294;2022-09-12T07:53:38;17.60;99.90
41720;DHT22;27405;53.316;-6.294;2022-09-12T07:56:06;17.70;99.90
41720;DHT22;27405;53.316;-6.294;2022-09-12T07:58:33;17.70;99.90
41720;DHT22;27405;53.316;-6.294;2022-09-12T08:01:11;17.60;99.90
41720;DHT22;27405;53.316;-6.294;2022-09-12T08:03:41;17.70;99.90
41720;DHT22;27405;53.316;-6.294;2022-09-12T08:08:35;17.80;99.90
41720;DHT22;27405;53.316;-6.294;2022-09-12T08:11:03;17.70;99.90
41720;DHT22;27405;53.316;-6.294;2022-09-12T08:13:32;17.70;99.90
41720;DHT22;27405;53.316;-6.294;2022-09-12T08:16:03;17.70;99.90
41720;DHT22;27405;53.316;-6.294;2022-09-12T08:18:30;17.70;99.90
41720;DHT22;27405;53.316;-6.294;2022-09-12T08:21:02;17.70;99.90
41720;DHT22;27405;53.316;-6.294;2022-09-12T08:23:28;17.70;99.90
41720;DHT22;27405;53.316;-6.294;2022-09-12T08:26:01;17.70;99.90
41720;DHT22;27405;53.316;-6.294;2022-09-12T08:28:28;17.70;99.90
41720;DHT22;27405;53.316;-6.294;2022-09-12T08:30:59;17.70;99.90
41720;DHT22;27405;53.316;-6.294;2022-09-12T08:33:26;17.70;99.90
41720;DHT22;27405;53.316;-6.294;2022-09-12T08:38:34;17.70;99.90
41720;DHT22;27405;53.316;-6.294;2022-09-12T08:41:28;17.80;99.90
41720;DHT22;27405;53.316;-6.294;2022-09-12T08:49:28;18.00;99.90
41720;DHT22;27405;53.316;-6.294;2022-09-12T08:51:56;18.00;99.90
41720;DHT22;27405;53.316;-6.294;2022-09-12T08:54:26;18.10;99.90
41720;DHT22;27405;53.316;-6.294;2022-09-12T08:56:57;18.10;99.90
41720;DHT22;27405;53.316;-6.294;2022-09-12T08:59:31;18.10;99.90
41720;DHT22;27405;53.316;-6.294;2022-09-12T09:02:00;18.10;99.90
41720;DHT22;27405;53.316;-6.294;2022-09-12T09:04:32;18.10;99.90
41720;DHT22;27405;53.316;-6.294;2022-09-12T09:20:42;18.00;99.90
41720;DHT22;27405;53.316;-6.294;2022-09-12T09:23:24;18.00;99.90
41720;DHT22;27405;53.316;-6.294;2022-09-12T09:26:09;18.10;99.90
41720;DHT22;27405;53.316;-6.294;2022-09-12T09:28:54;18.20;99.90
41720;DHT22;27405;53.316;-6.294;2022-09-12T09:31:24;18.30;99.90
41720;DHT22;27405;53.316;-6.294;2022-09-12T09:33:51;18.30;99.90
41720;DHT22;27405;53.316;-6.294;2022-09-12T09:36:22;18.30;99.90
41720;DHT22;27405;53.316;-6.294;2022-09-12T09:39:08;18.30;99.90
41720;DHT22;27405;53.316;-6.294;2022-09-12T09:42:07;18.30;99.90
41720;DHT22;27405;53.316;-6.294;2022-09-12T09:44:28;18.10;99.90
41720;DHT22;27405;53.316;-6.294;2022-09-12T09:46:55;18.10;99.90
41720;DHT22;27405;53.316;-6.294;2022-09-12T09:49:24;18.10;99.90
41720;DHT22;27405;53.316;-6.294;2022-09-12T09:51:51;18.10;99.90
41720;DHT22;27405;53.316;-6.294;2022-09-12T09:54:22;18.10;99.90
41720;DHT22;27405;53.316;-6.294;2022-09-12T09:56:48;18.10;99.90
41720;DHT22;27405;53.316;-6.294;2022-09-12T10:01:54;18.10;99.90
41720;DHT22;27405;53.316;-6.294;2022-09-12T10:04:24;18.20;99.90
41720;DHT22;27405;53.316;-6.294;2022-09-12T10:06:56;18.10;99.90
41720;DHT22;27405;53.316;-6.294;2022-09-12T10:09:31;18.10;99.90
41720;DHT22;27405;53.316;-6.294;2022-09-12T10:12:27;18.10;99.90
41720;DHT22;27405;53.316;-6.294;2022-09-12T10:14:58;18.00;99.90
41720;DHT22;27405;53.316;-6.294;2022-09-12T10:17:30;18.00;99.90
41720;DHT22;27405;53.316;-6.294;2022-09-12T10:19:57;18.10;99.90
41720;DHT22;27405;53.316;-6.294;2022-09-12T10:22:28;18.10;99.90
41720;DHT22;27405;53.316;-6.294;2022-09-12T10:24:58;18.20;99.90
41720;DHT22;27405;53.316;-6.294;2022-09-12T10:27:31;18.20;99.90
41720;DHT22;27405;53.316;-6.294;2022-09-12T10:30:15;18.40;99.90
41720;DHT22;27405;53.316;-6.294;2022-09-12T10:32:48;18.50;99.90
41720;DHT22;27405;53.316;-6.294;2022-09-12T10:35:18;18.50;99.90
41720;DHT22;27405;53.316;-6.294;2022-09-12T10:38:02;18.50;99.90
41720;DHT22;27405;53.316;-6.294;2022-09-12T10:40:34;18.60;99.90
41720;DHT22;27405;53.316;-6.294;2022-09-12T10:43:15;18.50;99.90
41720;DHT22;27405;53.316;-6.294;2022-09-12T10:45:41;18.50;99.90
41720;DHT22;27405;53.316;-6.294;2022-09-12T10:48:29;18.60;99.90
41720;DHT22;27405;53.316;-6.294;2022-09-12T10:50:56;18.60;99.90
41720;DHT22;27405;53.316;-6.294;2022-09-12T11:03:58;19.00;99.90
41720;DHT22;27405;53.316;-6.294;2022-09-12T11:06:42;19.10;99.90
41720;DHT22;27405;53.316;-6.294;2022-09-12T11:09:21;19.20;99.90
41720;DHT22;27405;53.316;-6.294;2022-09-12T11:12:07;19.20;99.90
41720;DHT22;27405;53.316;-6.294;2022-09-12T11:14:55;19.30;99.90
41720;DHT22;27405;53.316;-6.294;2022-09-12T11:23:31;19.40;99.90
41720;DHT22;27405;53.316;-6.294;2022-09-12T11:37:43;19.30;99.90
41720;DHT22;27405;53.316;-6.294;2022-09-12T11:40:30;19.30;99.90
41720;DHT22;27405;53.316;-6.294;2022-09-12T11:44:07;19.30;99.90
41720;DHT22;27405;53.316;-6.294;2022-09-12T11:54:25;19.40;99.90
41720;DHT22;27405;53.316;-6.294;2022-09-12T11:57:14;19.40;99.90
41720;DHT22;27405;53.316;-6.294;2022-09-12T11:59:55;19.40;99.90
41720;DHT22;27405;53.316;-6.294;2022-09-12T12:02:34;19.40;99.90
41720;DHT22;27405;53.316;-6.294;2022-09-12T12:05:24;19.40;99.90
41720;DHT22;27405;53.316;-6.294;2022-09-12T12:10:42;19.30;99.90
41720;DHT22;27405;53.316;-6.294;2022-09-12T12:15:48;19.20;99.90
41720;DHT22;27405;53.316;-6.294;2022-09-12T12:18:19;19.10;99.90
41720;DHT22;27405;53.316;-6.294;2022-09-12T12:20:47;19.10;99.90
41720;DHT22;27405;53.316;-6.294;2022-09-12T12:23:28;19.10;99.90
41720;DHT22;27405;53.316;-6.294;2022-09-12T12:25:59;19.00;99.90
41720;DHT22;27405;53.316;-6.294;2022-09-12T12:31:07;19.00;99.90
41720;DHT22;27405;53.316;-6.294;2022-09-12T12:36:04;18.90;99.90
41720;DHT22;27405;53.316;-6.294;2022-09-12T12:38:36;18.80;99.90
41720;DHT22;27405;53.316;-6.294;2022-09-12T12:43:50;18.80;99.90
41720;DHT22;27405;53.316;-6.294;2022-09-12T12:46:20;18.70;99.90
41720;DHT22;27405;53.316;-6.294;2022-09-12T12:48:57;18.60;99.90
41720;DHT22;27405;53.316;-6.294;2022-09-12T13:00:02;18.60;99.90
41720;DHT22;27405;53.316;-6.294;2022-09-12T13:02:32;18.70;99.90
41720;DHT22;27405;53.316;-6.294;2022-09-12T13:05:02;18.70;99.90
41720;DHT22;27405;53.316;-6.294;2022-09-12T13:07:37;18.70;99.90
41720;DHT22;27405;53.316;-6.294;2022-09-12T13:10:06;18.70;99.90
41720;DHT22;27405;53.316;-6.294;2022-09-12T13:12:42;18.80;99.90
41720;DHT22;27405;53.316;-6.294;2022-09-12T13:18:09;18.80;99.90
41720;DHT22;27405;53.316;-6.294;2022-09-12T13:21:20;18.90;99.90
41720;DHT22;27405;53.316;-6.294;2022-09-12T13:24:03;19.00;99.90
41720;DHT22;27405;53.316;-6.294;2022-09-12T13:26:34;19.00;99.90
41720;DHT22;27405;53.316;-6.294;2022-09-12T13:31:35;18.90;99.90
41720;DHT22;27405;53.316;-6.294;2022-09-12T13:34:04;18.90;99.90
41720;DHT22;27405;53.316;-6.294;2022-09-12T13:39:25;18.80;99.90
41720;DHT22;27405;53.316;-6.294;2022-09-12T13:45:10;18.70;99.90
41720;DHT22;27405;53.316;-6.294;2022-09-12T13:47:45;18.70;99.90
41720;DHT22;27405;53.316;-6.294;2022-09-12T13:50:20;18.70;99.90
41720;DHT22;27405;53.316;-6.294;2022-09-12T13:52:56;18.60;99.90
41720;DHT22;27405;53.316;-6.294;2022-09-12T13:55:33;18.60;99.90
41720;DHT22;27405;53.316;-6.294;2022-09-12T13:58:05;18.60;99.90
41720;DHT22;27405;53.316;-6.294;2022-09-12T14:00:32;18.60;99.90
41720;DHT22;27405;53.316;-6.294;2022-09-12T14:03:00;18.60;99.90
41720;DHT22;27405;53.316;-6.294;2022-09-12T14:05:53;18.60;99.90
41720;DHT22;27405;53.316;-6.294;2022-09-12T14:08:21;18.60;99.90
41720;DHT22;27405;53.316;-6.294;2022-09-12T14:10:48;18.50;99.90
41720;DHT22;27405;53.316;-6.294;2022-09-12T14:13:18;18.50;99.90
41720;DHT22;27405;53.316;-6.294;2022-09-12T14:15:47;18.50;99.90
41720;DHT22;27405;53.316;-6.294;2022-09-12T14:18:28;18.50;99.90
41720;DHT22;27405;53.316;-6.294;2022-09-12T14:20:56;18.50;99.90
41720;DHT22;27405;53.316;-6.294;2022-09-12T14:23:31;18.50;99.90
41720;DHT22;27405;53.316;-6.294;2022-09-12T14:26:00;18.50;99.90
41720;DHT22;27405;53.316;-6.294;2022-09-12T14:28:27;18.40;99.90
41720;DHT22;27405;53.316;-6.294;2022-09-12T14:33:23;18.40;99.90
41720;DHT22;27405;53.316;-6.294;2022-09-12T14:35:51;18.50;99.90
41720;DHT22;27405;53.316;-6.294;2022-09-12T14:38:30;18.50;99.90
41720;DHT22;27405;53.316;-6.294;2022-09-12T14:41:01;18.40;99.90
41720;DHT22;27405;53.316;-6.294;2022-09-12T14:43:38;18.40;99.90
41720;DHT22;27405;53.316;-6.294;2022-09-12T14:46:13;18.40;99.90
41720;DHT22;27405;53.316;-6.294;2022-09-12T14:48:43;18.40;99.90
41720;DHT22;27405;53.316;-6.294;2022-09-12T14:51:30;18.40;99.90
41720;DHT22;27405;53.316;-6.294;2022-09-12T14:53:56;18.30;99.90
41720;DHT22;27405;53.316;-6.294;2022-09-12T14:56:41;18.30;99.90
41720;DHT22;27405;53.316;-6.294;2022-09-12T15:10:00;18.20;99.90
41720;DHT22;27405;53.316;-6.294;2022-09-12T15:12:27;18.20;99.90
41720;DHT22;27405;53.316;-6.294;2022-09-12T15:17:39;18.20;99.90
41720;DHT22;27405;53.316;-6.294;2022-09-12T15:20:05;18.20;99.90
41720;DHT22;27405;53.316;-6.294;2022-09-12T15:22:31;18.20;99.90
41720;DHT22;27405;53.316;-6.294;2022-09-12T15:24:58;18.10;99.90
41720;DHT22;27405;53.316;-6.294;2022-09-12T15:27:24;18.00;99.90
41720;DHT22;27405;53.316;-6.294;2022-09-12T15:29:51;17.90;99.90
41720;DHT22;27405;53.316;-6.294;2022-09-12T15:32:26;17.80;99.90
41720;DHT22;27405;53.316;-6.294;2022-09-12T15:34:52;17.80;99.90
41720;DHT22;27405;53.316;-6.294;2022-09-12T15:37:19;17.70;99.90
41720;DHT22;27405;53.316;-6.294;2022-09-12T15:39:46;17.70;99.90
41720;DHT22;27405;53.316;-6.294;2022-09-12T15:42:12;17.70;99.90
41720;DHT22;27405;53.316;-6.294;2022-09-12T15:44:39;17.70;99.90
41720;DHT22;27405;53.316;-6.294;2022-09-12T15:47:05;17.60;99.90
41720;DHT22;27405;53.316;-6.294;2022-09-12T15:49:31;17.60;99.90
41720;DHT22;27405;53.316;-6.294;2022-09-12T15:51:59;17.60;99.90
41720;DHT22;27405;53.316;-6.294;2022-09-12T15:54:25;17.60;99.90
41720;DHT22;27405;53.316;-6.294;2022-09-12T15:56:51;17.60;99.90
41720;DHT22;27405;53.316;-6.294;2022-09-12T15:59:16;17.50;99.90
41720;DHT22;27405;53.316;-6.294;2022-09-12T16:01:42;17.50;99.90
41720;DHT22;27405;53.316;-6.294;2022-09-12T16:04:23;17.50;99.90
41720;DHT22;27405;53.316;-6.294;2022-09-12T16:06:49;17.50;99.90
41720;DHT22;27405;53.316;-6.294;2022-09-12T16:09:16;17.50;99.90
41720;DHT22;27405;53.316;-6.294;2022-09-12T16:11:41;17.50;99.90
41720;DHT22;27405;53.316;-6.294;2022-09-12T16:14:07;17.40;99.90
41720;DHT22;27405;53.316;-6.294;2022-09-12T16:16:33;17.40;99.90
41720;DHT22;27405;53.316;-6.294;2022-09-12T16:19:00;17.30;99.90
41720;DHT22;27405;53.316;-6.294;2022-09-12T16:21:25;17.30;99.90
41720;DHT22;27405;53.316;-6.294;2022-09-12T16:23:51;17.30;99.90
41720;DHT22;27405;53.316;-6.294;2022-09-12T16:26:17;17.30;99.90
41720;DHT22;27405;53.316;-6.294;2022-09-12T16:28:43;17.30;99.90
41720;DHT22;27405;53.316;-6.294;2022-09-12T16:31:11;17.30;99.90
41720;DHT22;27405;53.316;-6.294;2022-09-12T16:33:38;17.30;99.90
41720;DHT22;27405;53.316;-6.294;2022-09-12T16:36:06;17.30;99.90
41720;DHT22;27405;53.316;-6.294;2022-09-12T16:38:33;17.20;99.90
41720;DHT22;27405;53.316;-6.294;2022-09-12T16:41:04;17.20;99.90
41720;DHT22;27405;53.316;-6.294;2022-09-12T16:43:30;17.20;99.90
41720;DHT22;27405;53.316;-6.294;2022-09-12T16:46:17;17.20;99.90
41720;DHT22;27405;53.316;-6.294;2022-09-12T16:48:45;17.20;99.90
41720;DHT22;27405;53.316;-6.294;2022-09-12T16:51:12;17.20;99.90
41720;DHT22;27405;53.316;-6.294;2022-09-12T16:53:38;17.20;99.90
41720;DHT22;27405;53.316;-6.294;2022-09-12T16:56:05;17.20;99.90
41720;DHT22;27405;53.316;-6.294;2022-09-12T16:58:39;17.10;99.90
41720;DHT22;27405;53.316;-6.294;2022-09-12T17:03:39;17.10;99.90
41720;DHT22;27405;53.316;-6.294;2022-09-12T17:06:12;17.10;99.90
41720;DHT22;27405;53.316;-6.294;2022-09-12T17:08:40;17.10;99.90
41720;DHT22;27405;53.316;-6.294;2022-09-12T17:11:08;17.00;99.90
41720;DHT22;27405;53.316;-6.294;2022-09-12T17:13:34;17.10;99.90
41720;DHT22;27405;53.316;-6.294;2022-09-12T17:16:07;17.00;99.90
41720;DHT22;27405;53.316;-6.294;2022-09-12T17:18:33;17.10;99.90
41720;DHT22;27405;53.316;-6.294;2022-09-12T17:20:59;17.00;99.90
41720;DHT22;27405;53.316;-6.294;2022-09-12T17:23:24;17.00;99.90
41720;DHT22;27405;53.316;-6.294;2022-09-12T17:25:51;17.00;99.90
41720;DHT22;27405;53.316;-6.294;2022-09-12T17:28:17;17.00;99.90
41720;DHT22;27405;53.316;-6.294;2022-09-12T17:30:43;17.00;99.90
41720;DHT22;27405;53.316;-6.294;2022-09-12T17:33:09;17.10;99.90
41720;DHT22;27405;53.316;-6.294;2022-09-12T17:35:36;17.00;99.90
41720;DHT22;27405;53.316;-6.294;2022-09-12T17:38:05;17.10;99.90
41720;DHT22;27405;53.316;-6.294;2022-09-12T17:40:34;17.00;99.90
41720;DHT22;27405;53.316;-6.294;2022-09-12T17:43:00;17.00;99.90
41720;DHT22;27405;53.316;-6.294;2022-09-12T17:45:26;17.00;99.90
41720;DHT22;27405;53.316;-6.294;2022-09-12T17:47:53;17.10;99.90
41720;DHT22;27405;53.316;-6.294;2022-09-12T17:50:19;17.10;99.90
41720;DHT22;27405;53.316;-6.294;2022-09-12T17:52:45;17.00;99.90
41720;DHT22;27405;53.316;-6.294;2022-09-12T17:55:12;17.00;99.90
41720;DHT22;27405;53.316;-6.294;2022-09-12T17:57:38;17.00;99.90
41720;DHT22;27405;53.316;-6.294;2022-09-12T18:00:05;17.00;99.90
41720;DHT22;27405;53.316;-6.294;2022-09-12T18:02:31;17.00;99.90
41720;DHT22;27405;53.316;-6.294;2022-09-12T18:04:57;16.90;99.90